Time;durP1;ratioP1;P1;durP2;ratioP2;P2;SDS_P1;SDS_P2;PMS_P1;PMS_P2;Temp;Humidity;BMP_temperature;BMP_pressure;BME280_temperature;BME280_humidity;BME280_pressure;Samples;Min_cycle;Max_cycle;Signal;HPM_P1;HPM_P2
2022/02/03 00:04:36;;;;;;;14.18;11.15;;;;;;;8.45;100.00;102069.78;10402347;28;20037;-74
2022/02/03 00:51:51;;;;;;;25.42;12.50;;;;;;;8.41;100.00;102041.41;10414444;28;20068;-73
2022/02/03 00:57:04;;;;;;;26.15;11.18;;;;;;;8.43;100.00;102040.25;10397957;28;20041;-72
2022/02/03 01:02:07;;;;;;;30.63;12.23;;;;;;;8.42;100.00;102037.69;10381466;28;20504;-72
2022/02/03 01:07:19;;;;;;;41.30;14.35;;;;;;;8.37;100.00;102025.50;10395927;28;20087;-72
2022/02/03 01:12:30;;;;;;;50.88;14.18;;;;;;;8.41;100.00;102036.84;10414097;28;20044;-73
2022/02/03 01:33:43;;;;;;;38.75;15.35;;;;;;;8.30;100.00;102000.13;10411361;28;20116;-73
2022/02/03 01:44:18;;;;;;;36.45;11.45;;;;;;;8.35;100.00;101983.47;10406341;28;20041;-74
2022/02/03 01:49:29;;;;;;;29.13;12.25;;;;;;;8.26;100.00;101981.69;10391962;28;20033;-73
2022/02/03 01:54:30;;;;;;;28.25;11.15;;;;;;;8.32;100.00;101990.00;10404991;28;20034;-75
2022/02/03 01:59:30;;;;;;;18.48;12.88;;;;;;;8.30;100.00;101980.41;10402918;28;20059;-74
2022/02/03 02:05:07;;;;;;;30.80;12.15;;;;;;;8.33;100.00;101980.09;10386661;28;20136;-73
2022/02/03 02:16:31;;;;;;;14.43;9.68;;;;;;;8.28;100.00;101991.34;10420548;28;20025;-74
2022/02/03 02:43:46;;;;;;;25.83;9.07;;;;;;;8.26;100.00;101908.84;10417961;28;20049;-73
2022/02/03 02:49:12;;;;;;;22.55;8.52;;;;;;;8.36;100.00;101909.59;10387135;28;20132;-73
2022/02/03 03:36:45;;;;;;;7.25;4.75;;;;;;;8.33;99.64;101813.59;10416895;28;20428;-73
2022/02/03 03:41:46;;;;;;;20.90;6.28;;;;;;;8.29;99.21;101804.13;10416923;28;20048;-72
2022/02/03 03:46:46;;;;;;;6.88;3.88;;;;;;;8.29;98.95;101811.38;10383131;28;20480;-73
2022/02/03 03:51:57;;;;;;;9.32;4.38;;;;;;;8.27;98.62;101808.84;10416912;28;20362;-72
2022/02/03 03:57:25;;;;;;;10.40;3.58;;;;;;;8.28;98.29;101807.84;10399530;28;20385;-73
2022/02/03 04:41:08;;;;;;;5.30;4.78;;;;;;;7.97;99.17;101758.91;10401392;28;20409;-74
2022/02/03 04:52:20;;;;;;;9.85;3.85;;;;;;;7.93;98.54;101769.19;10425080;28;20037;-73
2022/02/03 05:02:46;;;;;;;6.90;3.78;;;;;;;7.88;98.56;101755.34;10432665;28;20056;-73
2022/02/03 05:19:59;;;;;;;7.20;4.20;;;;;;;7.83;98.03;101724.47;10304549;28;20046;-72
2022/02/03 05:25:41;;;;;;;8.48;4.00;;;;;;;7.74;97.62;101704.69;10415910;28;20038;-72
2022/02/03 05:42:35;;;;;;;16.33;4.70;;;;;;;7.74;98.09;101693.06;10334978;28;20050;-74
2022/02/03 06:08:53;;;;;;;10.77;4.38;;;;;;;7.62;98.50;101650.19;10390282;28;20037;-75
2022/02/03 06:14:10;;;;;;;14.27;3.42;;;;;;;7.66;97.49;101665.06;10379394;28;20485;-72
2022/02/03 06:29:34;;;;;;;14.20;5.22;;;;;;;7.73;97.29;101640.16;10421427;28;20497;-72
2022/02/03 06:34:34;;;;;;;7.25;2.55;;;;;;;7.55;97.22;101624.88;10404680;28;20033;-73
2022/02/03 06:39:35;;;;;;;5.68;4.07;;;;;;;7.59;97.66;101604.69;10451749;28;20138;-73
2022/02/03 06:44:46;;;;;;;17.70;4.85;;;;;;;7.64;97.28;101604.22;10463720;28;20140;-72
2022/02/03 07:00:26;;;;;;;11.57;6.28;;;;;;;7.55;97.17;101605.16;10462599;28;20075;-74
2022/02/03 07:05:26;;;;;;;7.43;5.95;;;;;;;7.53;97.08;101609.88;10462269;28;20098;-73
2022/02/03 07:10:27;;;;;;;11.85;6.55;;;;;;;7.56;97.10;101621.19;10454564;28;20037;-72
2022/02/03 07:15:27;;;;;;;17.52;6.15;;;;;;;7.50;97.48;101594.88;10471498;28;20041;-72
2022/02/03 07:20:29;;;;;;;7.95;5.40;;;;;;;7.49;97.68;101605.81;10443388;28;20072;-72
2022/02/03 07:25:30;;;;;;;21.33;5.82;;;;;;;7.47;97.64;101581.72;10441938;28;20048;-72
2022/02/03 07:30:31;;;;;;;20.05;6.80;;;;;;;7.39;98.11;101597.84;10461288;28;20041;-73
2022/02/03 07:35:33;;;;;;;16.83;8.45;;;;;;;7.45;98.33;101581.88;10459546;28;20127;-72
2022/02/03 07:40:34;;;;;;;12.25;8.68;;;;;;;7.42;98.76;101598.38;10458966;28;20572;-72
2022/02/03 07:45:35;;;;;;;15.90;8.77;;;;;;;7.42;99.13;101581.34;10441007;28;20393;-73
2022/02/03 07:50:35;;;;;;;11.88;8.02;;;;;;;7.31;100.00;101595.97;10439945;28;20083;-73
2022/02/03 07:55:36;;;;;;;15.00;7.57;;;;;;;7.26;100.00;101586.66;10458072;28;20079;-71
2022/02/03 08:00:36;;;;;;;10.00;8.73;;;;;;;7.29;100.00;101589.03;10457634;28;20064;-72
2022/02/03 08:05:37;;;;;;;14.38;10.05;;;;;;;7.09;100.00;101594.63;10458127;28;20086;-72
2022/02/03 08:10:43;;;;;;;12.70;9.88;;;;;;;6.94;100.00;101593.50;10440947;28;20033;-73
2022/02/03 08:15:44;;;;;;;12.55;10.23;;;;;;;6.85;100.00;101589.06;10458004;28;20043;-73
2022/02/03 08:20:52;;;;;;;12.05;10.45;;;;;;;6.82;100.00;101570.53;10457486;28;20102;-74
2022/02/03 08:31:21;;;;;;;10.25;9.20;;;;;;;6.70;100.00;101546.56;10455122;28;20041;-74
2022/02/03 08:36:22;;;;;;;16.88;12.48;;;;;;;6.69;100.00;101542.16;10458235;28;20037;-72
2022/02/03 08:41:25;;;;;;;13.60;11.88;;;;;;;6.80;100.00;101559.09;10415464;28;20127;-74
2022/02/03 08:46:26;;;;;;;23.08;14.60;;;;;;;6.82;100.00;101540.91;10415328;28;20580;-73
2022/02/03 08:51:27;;;;;;;18.27;12.52;;;;;;;6.75;100.00;101535.31;10412761;28;20044;-76
2022/02/03 08:56:44;;;;;;;15.55;12.45;;;;;;;6.69;100.00;101544.84;10415429;28;20509;-75
2022/02/03 09:34:40;;;;;;;14.38;10.63;;;;;;;6.68;100.00;101551.25;10423416;28;20041;-76
2022/02/03 10:00:26;;;;;;;10.82;9.40;;;;;;;6.82;100.00;101525.59;10461688;28;20039;-77
2022/02/03 10:05:38;;;;;;;13.02;9.75;;;;;;;6.99;100.00;101510.41;10462010;28;20029;-76
2022/02/03 10:10:39;;;;;;;10.63;8.98;;;;;;;7.01;100.00;101513.78;10430192;28;20099;-76
2022/02/03 10:15:39;;;;;;;9.77;8.80;;;;;;;7.16;100.00;101524.81;10443767;28;20033;-75
2022/02/03 10:20:47;;;;;;;10.98;7.53;;;;;;;7.31;100.00;101530.47;10464210;28;20032;-76
2022/02/03 10:25:51;;;;;;;11.95;6.35;;;;;;;7.07;100.00;101528.47;10460803;28;20052;-75
2022/02/03 10:30:57;;;;;;;10.10;7.40;;;;;;;7.02;100.00;101509.22;10460572;28;20116;-75
2022/02/03 10:36:03;;;;;;;21.43;8.03;;;;;;;7.05;100.00;101517.00;10460050;28;20373;-76
2022/02/03 10:41:40;;;;;;;10.25;6.15;;;;;;;6.97;100.00;101497.09;10460324;28;20299;-76
2022/02/03 11:07:56;;;;;;;13.45;9.45;;;;;;;7.18;100.00;101477.03;10404489;28;20461;-75
2022/02/03 11:12:56;;;;;;;24.27;8.25;;;;;;;7.16;100.00;101471.78;10426369;28;20060;-75
2022/02/03 11:17:58;;;;;;;12.55;8.70;;;;;;;7.06;100.00;101462.97;10440875;28;20045;-75
2022/02/03 11:44:35;;;;;;;16.83;9.32;;;;;;;7.12;100.00;101438.09;10392289;28;20432;-75
2022/02/03 12:15:48;;;;;;;12.02;8.85;;;;;;;7.20;100.00;101411.19;10438074;28;20067;-76
2022/02/03 12:20:57;;;;;;;10.98;8.73;;;;;;;7.15;100.00;101413.53;10456897;28;20064;-75
2022/02/03 12:26:04;;;;;;;19.13;10.85;;;;;;;7.26;100.00;101392.69;10423611;28;20079;-75
2022/02/03 12:41:59;;;;;;;12.15;9.00;;;;;;;7.44;100.00;101383.50;10456200;28;20400;-75
2022/02/03 12:47:04;;;;;;;19.98;9.63;;;;;;;7.39;100.00;101382.28;10455235;28;20067;-74
2022/02/03 12:52:22;;;;;;;15.65;8.98;;;;;;;7.32;100.00;101375.88;10455506;28;20029;-74
2022/02/03 12:57:31;;;;;;;11.20;8.27;;;;;;;7.27;100.00;101362.88;10454764;28;20090;-75
2022/02/03 13:02:31;;;;;;;20.63;10.23;;;;;;;7.28;100.00;101361.06;10437412;28;20029;-74
2022/02/03 13:07:32;;;;;;;15.68;10.10;;;;;;;7.11;100.00;101361.00;10437111;28;20033;-76
2022/02/03 13:12:37;;;;;;;13.70;10.90;;;;;;;7.14;100.00;101341.81;10456293;28;20460;-75
2022/02/03 13:17:51;;;;;;;12.27;9.88;;;;;;;7.11;100.00;101344.81;10463383;28;20025;-75
2022/02/03 13:23:04;;;;;;;16.40;9.75;;;;;;;7.17;100.00;101343.34;10446622;28;20109;-76
2022/02/03 13:28:13;;;;;;;10.95;9.02;;;;;;;7.17;100.00;101321.78;10464047;28;20047;-77
2022/02/03 13:33:16;;;;;;;17.67;10.82;;;;;;;7.11;100.00;101330.53;10448350;28;20049;-76
2022/02/03 13:39:24;;;;;;;11.40;9.13;;;;;;;7.04;100.00;101332.19;10446221;28;20121;-76
2022/02/03 13:43:46;;;;;;;15.90;11.00;;;;;;;7.11;100.00;101325.97;10449414;28;20047;-76
2022/02/03 13:48:50;;;;;;;14.18;9.82;;;;;;;7.12;100.00;101322.28;10428402;28;20033;-76
2022/02/03 14:30:56;;;;;;;20.05;11.10;;;;;;;7.62;100.00;101278.22;10446706;28;20074;-74
2022/02/03 14:36:04;;;;;;;15.15;8.40;;;;;;;7.65;100.00;101258.16;10463047;28;20086;-75
2022/02/03 14:41:12;;;;;;;13.70;9.43;;;;;;;7.71;100.00;101273.66;10448013;28;20061;-74
2022/02/03 14:46:15;;;;;;;13.57;10.70;;;;;;;7.81;100.00;101285.09;10460004;28;20037;-76
2022/02/03 14:51:21;;;;;;;15.02;9.82;;;;;;;7.80;100.00;101269.97;10442746;28;20045;-74
2022/02/03 15:01:41;;;;;;;15.43;8.25;;;;;;;7.84;100.00;101267.75;10459317;28;20075;-73
2022/02/03 15:06:50;;;;;;;12.70;9.20;;;;;;;7.92;100.00;101265.91;10458562;28;20170;-74
2022/02/03 15:16:53;;;;;;;15.80;8.02;;;;;;;7.90;100.00;101259.00;10458982;28;20048;-74
2022/02/03 15:21:53;;;;;;;10.68;7.43;;;;;;;7.84;100.00;101259.66;10458640;28;20397;-74
2022/02/03 15:26:55;;;;;;;8.27;6.97;;;;;;;7.77;100.00;101264.91;10457813;28;20075;-74
2022/02/03 15:31:56;;;;;;;6.95;6.35;;;;;;;7.77;100.00;101256.81;10440720;28;20033;-74
2022/02/03 15:37:01;;;;;;;8.40;7.03;;;;;;;7.81;100.00;101258.16;10441743;28;20067;-74
2022/02/03 15:42:02;;;;;;;6.90;5.05;;;;;;;7.79;100.00;101252.09;10460814;28;20084;-75
2022/02/03 15:47:08;;;;;;;7.72;5.35;;;;;;;7.75;100.00;101255.28;10458652;28;20045;-74
2022/02/03 16:02:55;;;;;;;7.50;4.72;;;;;;;7.73;100.00;101250.09;10443844;28;20037;-74
2022/02/03 16:18:23;;;;;;;5.30;4.90;;;;;;;7.71;100.00;101259.34;10459341;28;20029;-73
2022/02/03 16:55:14;;;;;;;8.68;4.88;;;;;;;7.60;100.00;101245.22;10460066;28;20041;-73
2022/02/03 17:00:16;;;;;;;10.27;5.93;;;;;;;7.62;100.00;101243.19;10442726;28;20096;-73
2022/02/03 17:05:17;;;;;;;7.35;5.57;;;;;;;7.64;100.00;101249.25;10460588;28;20033;-73
2022/02/03 17:10:17;;;;;;;11.60;5.28;;;;;;;7.55;100.00;101230.56;10447483;28;20079;-75
2022/02/03 17:15:20;;;;;;;6.38;5.72;;;;;;;7.54;100.00;101242.34;10461280;28;20037;-72
2022/02/03 17:20:22;;;;;;;10.75;5.68;;;;;;;7.57;100.00;101245.56;10458644;28;20033;-74
2022/02/03 17:25:41;;;;;;;6.55;5.97;;;;;;;7.54;100.00;101223.50;10440358;28;20043;-73
2022/02/03 18:19:22;;;;;;;7.55;5.47;;;;;;;7.46;100.00;101245.88;10451871;28;20041;-72
2022/02/03 18:35:04;;;;;;;6.28;5.15;;;;;;;7.47;100.00;101255.66;10467154;28;20045;-72
2022/02/03 18:56:24;;;;;;;8.20;5.50;;;;;;;7.53;100.00;101252.31;10449061;28;20056;-72
2022/02/03 20:04:52;;;;;;;8.47;3.70;;;;;;;7.23;100.00;101226.84;10392966;28;20061;-75
2022/02/03 20:10:11;;;;;;;6.20;3.70;;;;;;;7.33;100.00;101229.38;10444571;28;20575;-74
2022/02/03 20:15:12;;;;;;;22.05;3.80;;;;;;;7.45;100.00;101228.03;10498175;28;20517;-75
2022/02/03 20:20:13;;;;;;;5.18;3.38;;;;;;;7.48;100.00;101235.78;10498133;28;20123;-71
2022/02/03 20:25:13;;;;;;;10.73;4.53;;;;;;;7.45;100.00;101228.03;10496847;28;20123;-74
2022/02/03 20:30:13;;;;;;;9.02;4.43;;;;;;;7.43;100.00;101212.06;10497039;28;20464;-73
2022/02/03 20:35:14;;;;;;;5.47;4.35;;;;;;;7.41;100.00;101210.53;10497470;28;20046;-72
2022/02/03 20:40:14;;;;;;;10.55;5.30;;;;;;;7.53;100.00;101216.41;10497043;28;20064;-73
2022/02/03 20:45:15;;;;;;;5.13;4.05;;;;;;;7.57;100.00;101221.31;10497609;28;20512;-73
2022/02/03 20:50:19;;;;;;;4.82;3.85;;;;;;;7.57;100.00;101215.91;10497125;28;20028;-74
2022/02/03 20:55:20;;;;;;;5.47;4.53;;;;;;;7.60;100.00;101215.56;10498179;28;20029;-73
2022/02/03 21:00:35;;;;;;;11.02;5.18;;;;;;;7.63;100.00;101201.75;10485807;28;20079;-74
2022/02/03 21:05:36;;;;;;;8.10;4.30;;;;;;;7.60;100.00;101202.09;10498441;28;20041;-74
2022/02/03 21:10:36;;;;;;;6.70;4.00;;;;;;;7.64;100.00;101198.03;10478428;28;20040;-75
2022/02/03 21:15:38;;;;;;;10.75;4.13;;;;;;;7.72;100.00;101199.88;10496914;28;20127;-73
2022/02/03 21:20:40;;;;;;;8.15;3.80;;;;;;;7.74;100.00;101199.72;10496230;28;20025;-75
2022/02/03 21:25:46;;;;;;;8.88;4.35;;;;;;;7.74;100.00;101191.63;10479288;28;20029;-73
2022/02/03 21:30:50;;;;;;;7.13;5.15;;;;;;;7.74;100.00;101189.75;10468280;28;20032;-73
2022/02/03 21:35:51;;;;;;;5.28;4.13;;;;;;;7.67;100.00;101186.91;10438785;28;20124;-73
2022/02/03 21:40:53;;;;;;;5.32;4.82;;;;;;;7.69;100.00;101203.78;10460458;28;20060;-73
2022/02/03 21:45:53;;;;;;;13.27;5.72;;;;;;;7.61;100.00;101197.53;10428405;28;20072;-73
2022/02/03 21:50:54;;;;;;;6.00;5.25;;;;;;;7.62;100.00;101191.97;10462358;28;20384;-74
2022/02/03 21:55:56;;;;;;;11.07;6.03;;;;;;;7.66;100.00;101190.63;10462417;28;20045;-73
2022/02/03 22:00:57;;;;;;;11.38;5.55;;;;;;;7.63;100.00;101188.28;10444242;28;20033;-73
2022/02/03 22:05:58;;;;;;;11.45;5.47;;;;;;;7.51;100.00;101186.94;10461948;28;20068;-75
2022/02/03 22:11:00;;;;;;;8.55;5.63;;;;;;;7.62;100.00;101188.44;10443676;28;20025;-74
2022/02/03 22:16:06;;;;;;;11.02;7.00;;;;;;;7.63;100.00;101187.44;10443842;28;20104;-73
2022/02/03 22:22:01;;;;;;;12.77;8.10;;;;;;;7.63;100.00;101188.28;10461499;28;20044;-73
2022/02/03 22:26:58;;;;;;;7.63;5.18;;;;;;;7.62;100.00;101189.28;10455217;28;20499;-73
2022/02/03 22:52:52;;;;;;;11.27;7.95;;;;;;;7.55;100.00;101188.28;10461116;28;20033;-74
2022/02/03 22:58:13;;;;;;;10.48;7.50;;;;;;;7.62;100.00;101178.50;10460688;28;20048;-73
2022/02/03 23:03:13;;;;;;;18.90;10.80;;;;;;;7.57;100.00;101186.25;10460322;28;20047;-74
2022/02/03 23:08:39;;;;;;;13.98;9.40;;;;;;;7.62;100.00;101189.28;10441929;28;20255;-73
2022/02/03 23:23:46;;;;;;;20.83;12.73;;;;;;;7.61;100.00;101157.13;10461558;28;20041;-74
2022/02/03 23:28:46;;;;;;;17.30;13.02;;;;;;;7.66;100.00;101163.69;10458974;28;20116;-74
2022/02/03 23:33:47;;;;;;;13.93;9.77;;;;;;;7.63;100.00;101168.56;10458551;28;20162;-74
2022/02/03 23:39:09;;;;;;;20.83;11.38;;;;;;;7.61;100.00;101166.03;10457614;28;20061;-74
2022/02/03 23:44:29;;;;;;;21.17;8.43;;;;;;;7.58;100.00;101161.00;10458136;28;20044;-74
